
Distance (Route):
Temperature : -11.8°C
Humidity : 31.8%
Pressure : 0hPa| Receiver | Date | Latitude | Longitude | Direction | Speed | Altitude | Climb | Temperature | Humidity | Pressure | Voltage | Killtimer | Uptime | BKT | XDATA |
|---|---|---|---|---|---|---|---|---|---|---|---|---|---|---|---|
| IW2NTF | 2026-09-06 00:23:12 | 44.34436 | 12.21740 | 134° | 55km/h | 6845m | -10.9m/s | -11.8°C | 31.8% | 0hPa | 2.6V | 08:11:15 | 01:49:31 | 00:00:00 | |
| IW2NTF | 2026-09-06 00:22:57 | 44.34529 | 12.21597 | 130° | 57km/h | 6947m | -12m/s | -12.6°C | 32.1% | 0hPa | 2.6V | 08:11:25 | 01:49:21 | 00:00:00 | |
| IW2NTF | 2026-09-06 00:22:47 | 44.34622 | 12.21451 | 132° | 55km/h | 7060m | -12.4m/s | -13.4°C | 32.3% | 0hPa | 2.6V | 08:11:35 | 01:49:11 | 00:00:00 | |
| IW2NTF | 2026-09-06 00:18:19 | 44.37087 | 12.17634 | 141° | 57km/h | 10003m | -12m/s | -37.4°C | 23.7% | 0hPa | 2.5V | 08:16:04 | 01:44:42 | 00:00:00 | |
| IW2NTF | 2026-09-06 00:18:13 | 44.37194 | 12.17518 | 142° | 55km/h | 10117m | -11.8m/s | -38.5°C | 25.7% | 0hPa | 2.5V | 08:16:14 | 01:44:32 | 00:00:00 | |
| IW2NTF | 2026-09-06 00:17:59 | 44.37299 | 12.17401 | 140° | 53km/h | 10235m | -11.8m/s | -39.5°C | 26.5% | 0hPa | 2.5V | 08:16:24 | 01:44:22 | 00:00:00 | |
| IW2NTF | 2026-09-06 00:17:53 | 44.37400 | 12.17278 | 139° | 53km/h | 10349m | -14.8m/s | -40.6°C | 30% | 0hPa | 2.6V | 08:16:34 | 01:44:12 | 00:00:00 | |
| IW2NTF | 2026-09-06 00:17:42 | 44.37506 | 12.17151 | 139° | 55km/h | 10463m | -9.8m/s | -41.4°C | 29.9% | 0hPa | 2.5V | 08:16:44 | 01:44:02 | 00:00:00 | |
| IW2NTF | 2026-09-06 00:17:29 | 44.37616 | 12.17026 | 142° | 57km/h | 10581m | -10.6m/s | -42.5°C | 30.8% | 0hPa | 2.5V | 08:16:54 | 01:43:52 | 00:00:00 | |
| IW2NTF | 2026-09-06 00:17:23 | 44.37730 | 12.16899 | 140° | 58km/h | 10689m | -10.6m/s | -43.3°C | 33.7% | 0hPa | 2.6V | 08:17:04 | 01:43:42 | 00:00:00 | |
| IW2NTF | 2026-09-06 00:15:34 | 44.38987 | 12.15412 | 132° | 62km/h | 11912m | -11m/s | -53.1°C | 38.5% | 0hPa | 2.5V | 08:18:49 | 01:41:57 | 00:00:00 | |
| IW2NTF | 2026-09-06 00:15:28 | 44.39090 | 12.15247 | 130° | 62km/h | 12042m | -13.5m/s | -54.2°C | 45.4% | 0hPa | 2.6V | 08:18:59 | 01:41:47 | 00:00:00 | |
| IW2NTF | 2026-09-06 00:15:18 | 44.39188 | 12.15082 | 129° | 58km/h | 12172m | -15.6m/s | -55.2°C | 47.3% | 0hPa | 2.5V | 08:19:09 | 01:41:37 | 00:00:00 | |
| IW2NTF | 2026-09-06 00:15:07 | 44.39278 | 12.14915 | 127° | 60km/h | 12310m | -15.3m/s | -56.3°C | 50.1% | 0hPa | 2.5V | 08:19:19 | 01:41:27 | 00:00:00 | |
| IW2NTF | 2026-09-06 00:14:55 | 44.39370 | 12.14757 | 129° | 57km/h | 12449m | -15.3m/s | -57.5°C | 53.2% | 0hPa | 2.6V | 08:19:29 | 01:41:17 | 00:00:00 | |
| IW2NTF | 2026-09-06 00:14:42 | 44.39483 | 12.14566 | 131° | 57km/h | 12603m | -13.8m/s | -58.8°C | 57.8% | 0hPa | 2.6V | 08:19:41 | 01:41:05 | 00:00:00 | |
| IW2NTF | 2026-09-06 00:14:32 | 44.39582 | 12.14418 | 134° | 57km/h | 12731m | -11m/s | -59.9°C | 55.2% | 0hPa | 2.5V | 08:19:51 | 01:40:55 | 00:00:00 | |
| IW2NTF | 2026-09-06 00:14:27 | 44.39682 | 12.14271 | 134° | 58km/h | 12818m | -9m/s | -60.7°C | 56.6% | 0hPa | 2.6V | 08:20:01 | 01:40:45 | 00:00:00 | |
| IW2NTF | 2026-09-06 00:14:14 | 44.39805 | 12.14097 | 133° | 58km/h | 12926m | -7.4m/s | -61.6°C | 58.5% | 0hPa | 2.6V | 08:20:13 | 01:40:33 | 00:00:00 | |
| IW2NTF | 2026-09-06 00:09:37 | 44.41772 | 12.08716 | 112° | 49km/h | 16065m | -8.6m/s | -61.8°C | 8.3% | 0hPa | 2.6V | 08:24:49 | 01:35:57 | 00:00:00 | |
| IW2NTF | 2026-09-06 00:09:27 | 44.41812 | 12.08574 | 104° | 40km/h | 16153m | -8.3m/s | -61.5°C | 8.1% | 0hPa | 2.6V | 08:24:59 | 01:35:47 | 00:00:00 | |
| IW2NTF | 2026-09-06 00:09:18 | 44.41833 | 12.08410 | 96° | 46km/h | 16260m | -10.4m/s | -61.6°C | 7.7% | 0hPa | 2.5V | 08:25:10 | 01:35:36 | 00:00:00 | |
| IW2NTF | 2026-09-06 00:09:07 | 44.41831 | 12.08241 | 85° | 47km/h | 16367m | -10.9m/s | -61.6°C | 7.5% | 0hPa | 2.5V | 08:25:20 | 01:35:26 | 00:00:00 | |
| IW2NTF | 2026-09-06 00:08:53 | 44.41832 | 12.08077 | 94° | 44km/h | 16477m | -10.9m/s | -62.2°C | 7.8% | 0hPa | 2.6V | 08:25:30 | 01:35:16 | 00:00:00 | |
| IW2NTF | 2026-09-06 00:08:47 | 44.41845 | 12.07934 | 98° | 40km/h | 16592m | -13.3m/s | -62.8°C | 8.3% | 0hPa | 2.6V | 08:25:40 | 01:35:06 | 00:00:00 | |
| IW2NTF | 2026-09-06 00:08:33 | 44.41853 | 12.07763 | 93° | 42km/h | 16772m | -13.9m/s | -61.4°C | 7.3% | 0hPa | 2.5V | 08:25:52 | 01:34:54 | 00:00:00 | |
| IW2NTF | 2026-09-06 00:08:21 | 44.41862 | 12.07591 | 92° | 49km/h | 16889m | -12.5m/s | -61.4°C | 7.1% | 0hPa | 2.6V | 08:26:02 | 01:34:44 | 00:00:00 | |
| IW2NTF | 2026-09-06 00:08:13 | 44.41867 | 12.07408 | 96° | 57km/h | 17062m | -14.5m/s | -61.5°C | 7.1% | 0hPa | 2.6V | 08:26:12 | 01:34:34 | 00:00:00 | |
| IW2NTF | 2026-09-06 00:08:03 | 44.41901 | 12.07209 | 109° | 60km/h | 17238m | -15.3m/s | -62.4°C | 7.9% | 0hPa | 2.5V | 08:26:22 | 01:34:24 | 00:00:00 | |
| IW2NTF | 2026-09-06 00:07:53 | 44.41970 | 12.07049 | 131° | 51km/h | 17426m | -16.9m/s | -61.6°C | 7.5% | 0hPa | 2.5V | 08:26:32 | 01:34:14 | 00:00:00 | |
| IW2NTF | 2026-09-06 00:07:43 | 44.42035 | 12.06938 | 119° | 29km/h | 17575m | -20.6m/s | -60.2°C | 6.4% | 0hPa | 2.6V | 08:26:42 | 01:34:04 | 00:00:00 | |
| DO3MHA-11 | 2026-09-06 00:07:38 | 44.42041 | 12.06922 | 113° | 24km/h | 17616m | -17.9m/s | -60.0°C | 6.4% | 0hPa | 2.5V | 00:00:00 | 01:34:02 | 00:00:00 | |
| IW2NTF | 2026-09-06 00:07:33 | 44.42060 | 12.06859 | 115° | 22km/h | 17742m | -14.1m/s | -59.2°C | 6.2% | 0hPa | 2.5V | 08:26:52 | 01:33:54 | 00:00:00 | |
| DO3MHA-11 | 2026-09-06 00:07:28 | 44.42065 | 12.06845 | 118° | 33km/h | 17775m | -16.9m/s | -59.3°C | 6.1% | 0hPa | 2.5V | 00:00:00 | 01:33:52 | 00:00:00 | |
| IW2NTF | 2026-09-06 00:07:24 | 44.42096 | 12.06768 | 119° | 40km/h | 17916m | -20.2m/s | -59.9°C | 6.3% | 0hPa | 2.5V | 08:27:02 | 01:33:44 | 00:00:00 | |
| DO3MHA-11 | 2026-09-06 00:07:18 | 44.42106 | 12.06743 | 118° | 40km/h | 17953m | -16.3m/s | -59.6°C | 6.3% | 0hPa | 2.6V | 00:00:00 | 01:33:42 | 00:00:00 | |
| IW2NTF | 2026-09-06 00:07:11 | 44.42143 | 12.06640 | 119° | 42km/h | 18093m | -15.6m/s | -59.2°C | 6% | 0hPa | 2.6V | 08:27:12 | 01:33:34 | 00:00:00 | |
| DO3MHA-11 | 2026-09-06 00:07:08 | 44.42155 | 12.06616 | 125° | 40km/h | 18123m | -16.4m/s | -59.3°C | 6.1% | 0hPa | 2.5V | 00:00:00 | 01:33:32 | 00:00:00 | |
| IW2NTF | 2026-09-06 00:07:05 | 44.42210 | 12.06530 | 140° | 38km/h | 18268m | -17.9m/s | -60.2°C | 6.5% | 0hPa | 2.5V | 08:27:22 | 01:33:24 | 00:00:00 | |
| DO3MHA-11 | 2026-09-06 00:06:58 | 44.42225 | 12.06513 | 139° | 33km/h | 18303m | -17.0m/s | -60.0°C | 6.4% | 0hPa | 2.5V | 00:00:00 | 01:33:22 | 00:00:00 | |
| IW2NTF | 2026-09-06 00:06:55 | 44.42267 | 12.06438 | 117° | 31km/h | 18439m | -16.5m/s | -59.9°C | 6.3% | 0hPa | 2.6V | 08:27:32 | 01:33:14 | 00:00:00 | |
| DO3MHA-11 | 2026-09-06 00:06:48 | 44.42274 | 12.06418 | 114° | 29km/h | 18475m | -17.0m/s | -59.8°C | 6.4% | 0hPa | 2.6V | 00:00:00 | 01:33:12 | 00:00:00 | |
| IW2NTF | 2026-09-06 00:06:45 | 44.42285 | 12.06339 | 91° | 29km/h | 18599m | -16.2m/s | -59.3°C | 6% | 0hPa | 2.6V | 08:27:42 | 01:33:04 | 00:00:00 | |
| DO3MHA-11 | 2026-09-06 00:06:38 | 44.42284 | 12.06317 | 85° | 37km/h | 18632m | -16.8m/s | -59.4°C | 6.1% | 0hPa | 2.6V | 00:00:00 | 01:33:02 | 00:00:00 | |
| IW2NTF | 2026-09-06 00:06:31 | 44.42342 | 12.06084 | 128° | 42km/h | 18948m | -17.3m/s | -59.8°C | 6.3% | 0hPa | 2.6V | 08:28:02 | 01:32:44 | 00:00:00 | |
| IW2NTF | 2026-09-06 00:06:31 | 44.42366 | 12.06042 | 126° | 33km/h | 19009m | -15.2m/s | -59.8°C | 6.3% | 0hPa | 2.5V | 08:28:06 | 01:32:40 | 00:00:00 | |
| DO3MHA-11 | 2026-09-06 00:06:28 | 44.42298 | 12.06186 | 111° | 29km/h | 18803m | -17.7m/s | -59.1°C | 5.9% | 0hPa | 2.6V | 00:00:00 | 01:32:52 | 08:30:00 | |
| IW2NTF | 2026-09-06 00:06:08 | 44.42392 | 12.05961 | 81° | 24km/h | 19172m | -15m/s | -59.2°C | 6.3% | 0hPa | 2.6V | 08:28:16 | 01:32:30 | 00:00:00 | |
| IW2NTF | 2026-09-06 00:06:00 | 44.42391 | 12.05849 | 94° | 26km/h | 19367m | -15.8m/s | -58.3°C | 5.8% | 0hPa | 2.5V | 08:28:28 | 01:32:18 | 00:00:00 | |
| IW2NTF | 2026-09-06 00:05:48 | 44.42409 | 12.05768 | 112° | 22km/h | 19539m | -18m/s | -58.1°C | 5.5% | 0hPa | 2.5V | 08:28:38 | 01:32:08 | 00:00:00 | |
| IW2NTF | 2026-09-06 00:05:34 | 44.42433 | 12.05704 | 118° | 13km/h | 19745m | -20.8m/s | -59.2°C | 5.8% | 0hPa | 2.6V | 08:28:50 | 01:31:56 | 00:00:00 | |
| IW2NTF | 2026-09-06 00:05:26 | 44.42456 | 12.05643 | 128° | 24km/h | 19867m | -8.4m/s | -59.6°C | 6.4% | 0hPa | 2.5V | 08:30:00 | 01:31:46 | 00:00:00 | |
| DO3MHA-11 | 2026-09-06 00:05:16 | 44.42483 | 12.05616 | 153° | 16km/h | 19936m | -14.0m/s | -58.8°C | 6.0% | 0hPa | 2.7V | 00:00:00 | 01:31:40 | 00:00:00 | |
| IW2NTF | 2026-09-06 00:05:13 | 44.42498 | 12.05604 | 134° | 15km/h | 19985m | -12.2m/s | -58.8°C | 6% | 0hPa | 2.7V | 08:30:00 | 01:31:36 | 00:00:00 | |
| IW2NTF | 2026-09-06 00:05:08 | 44.42509 | 12.05543 | 97° | 24km/h | 20120m | -10.3m/s | -59°C | 6.3% | 0hPa | 2.5V | 08:30:00 | 01:31:26 | 00:00:00 | |
| DO3MHA-11 | 2026-09-06 00:05:06 | 44.42507 | 12.05575 | 97° | 26km/h | 20062m | -14.4m/s | -58.7°C | 6.0% | 0hPa | 2.5V | 00:00:00 | 01:31:30 | 00:00:00 | |
| DO3MHA-11 | 2026-09-06 00:04:56 | 44.42520 | 12.05487 | 106° | 31km/h | 20217m | -17.8m/s | -58.6°C | 6.4% | 0hPa | 2.5V | 00:00:00 | 01:31:20 | 00:00:00 | |
| IW2NTF | 2026-09-06 00:04:54 | 44.42527 | 12.05441 | 101° | 35km/h | 20280m | -13.2m/s | -58.2°C | 6.5% | 0hPa | 2.6V | 08:30:00 | 01:31:16 | 00:00:00 | |
| IW2NTF | 2026-09-06 00:04:48 | 44.42548 | 12.05366 | 107° | 15km/h | 20437m | -19.3m/s | -56.5°C | 5.5% | 0hPa | 2.5V | 08:30:00 | 01:31:06 | 00:00:00 | |
| DO3MHA-11 | 2026-09-06 00:04:47 | 44.42540 | 12.05387 | 117° | 20km/h | 20369m | -16.3m/s | -57.6°C | 6.1% | 0hPa | 2.5V | 00:00:00 | 01:31:10 | 00:00:00 | |
| IW2NTF | 2026-09-06 00:04:33 | 44.42543 | 12.05329 | 47° | 9km/h | 20602m | -16.8m/s | -54.7°C | 4.6% | 0hPa | 2.5V | 08:30:00 | 01:30:56 | 00:00:00 | |
| IW2NTF | 2026-09-06 00:04:28 | 44.42527 | 12.05267 | 79° | 24km/h | 20810m | -22.1m/s | -56.3°C | 5.1% | 0hPa | 2.5V | 08:30:00 | 01:30:46 | 00:00:00 | |
| IW2NTF | 2026-09-06 00:04:15 | 44.42536 | 12.05183 | 115° | 31km/h | 21024m | -19.1m/s | -56.9°C | 5.5% | 0hPa | 2.5V | 08:30:00 | 01:30:36 | 00:00:00 | |
| IW2NTF | 2026-09-06 00:04:04 | 44.42568 | 12.05082 | 131° | 29km/h | 21207m | -18.6m/s | -56.8°C | 5.4% | 0hPa | 2.7V | 08:30:00 | 01:30:26 | 00:00:00 | |
| IW2NTF | 2026-09-06 00:03:55 | 44.42615 | 12.05029 | 136° | 20km/h | 21341m | -2.5m/s | -56°C | 5.2% | 0hPa | 2.5V | 08:30:00 | 01:30:16 | 00:00:00 | |
| IW2NTF | 2026-09-06 00:03:41 | 44.42669 | 12.04965 | 124° | 29km/h | 21281m | 5.1m/s | -56.1°C | 5% | 0hPa | 2.5V | 08:30:00 | 01:30:04 | 00:00:00 | |
| IW2NTF | 2026-09-06 00:03:31 | 44.42718 | 12.04885 | 127° | 26km/h | 21227m | 4.7m/s | -56.7°C | 5.2% | 0hPa | 2.6V | 08:30:00 | 01:29:54 | 00:00:00 | |
| IW2NTF | 2026-09-06 00:03:22 | 44.42744 | 12.04793 | 120° | 29km/h | 21176m | 5.2m/s | -57.4°C | 5.6% | 0hPa | 2.7V | 08:30:00 | 01:29:44 | 00:00:00 | |
| IW2NTF | 2026-09-06 00:03:12 | 44.42781 | 12.04701 | 107° | 31km/h | 21122m | 5.1m/s | -57.2°C | 5.6% | 0hPa | 2.6V | 08:30:00 | 01:29:34 | 00:00:00 | |
| IW2NTF | 2026-09-06 00:03:02 | 44.42818 | 12.04600 | 116° | 27km/h | 21068m | 5.5m/s | -57°C | 5.4% | 0hPa | 2.7V | 08:30:00 | 01:29:24 | 00:00:00 | |
| DO3MHA-11 | 2026-09-06 00:02:53 | 44.42859 | 12.04453 | 102° | 24km/h | 20978m | 5.1m/s | -56.8°C | 5.6% | 0hPa | 2.5V | 00:00:00 | 01:29:07 | 00:00:00 | |
| IW2NTF | 2026-09-06 00:02:52 | 44.42841 | 12.04501 | 111° | 24km/h | 21015m | 4.9m/s | -56.9°C | 5.4% | 0hPa | 2.5V | 08:30:00 | 01:29:14 | 00:00:00 | |
| IW2NTF | 2026-09-06 00:02:42 | 44.42862 | 12.04421 | 93° | 35km/h | 20962m | 4.8m/s | -56.7°C | 5.5% | 0hPa | 2.6V | 08:30:00 | 01:29:04 | 00:00:00 | |
| IW2NTF | 2026-09-06 00:02:32 | 44.42865 | 12.04329 | 103° | 16km/h | 20909m | 4.6m/s | -56.4°C | 5.3% | 0hPa | 2.6V | 08:30:00 | 01:28:54 | 00:00:00 | |
| IW2NTF | 2026-09-06 00:02:21 | 44.42860 | 12.04244 | 81° | 27km/h | 20855m | 6.2m/s | -56.3°C | 5.4% | 0hPa | 2.6V | 08:30:00 | 01:28:44 | 00:00:00 | |
| IW2NTF | 2026-09-06 00:02:12 | 44.42850 | 12.04175 | 75° | 20km/h | 20802m | 4.8m/s | -56.1°C | 5.3% | 0hPa | 2.7V | 08:30:00 | 01:28:34 | 00:00:00 | |
| DO3MHA-11 | 2026-09-06 00:02:03 | 44.42836 | 12.04115 | 71° | 20km/h | 20765m | 5.4m/s | -55.9°C | 5.3% | 0hPa | 2.6V | 00:00:00 | 01:28:27 | 00:00:00 | |
| IW2NTF | 2026-09-06 00:02:01 | 44.42829 | 12.04097 | 57° | 16km/h | 20748m | 6.1m/s | -55.8°C | 5.3% | 0hPa | 2.6V | 08:30:00 | 01:28:24 | 00:00:00 | |
| IW2NTF | 2026-09-06 00:01:53 | 44.42803 | 12.04038 | 58° | 18km/h | 20696m | 4.6m/s | -55.3°C | 5.2% | 0hPa | 2.7V | 08:30:00 | 01:28:14 | 00:00:00 | |
| DO3MHA-11 | 2026-09-06 00:01:42 | 44.42787 | 12.03991 | 70° | 16km/h | 20633m | 6.3m/s | -54.8°C | 4.8% | 0hPa | 2.6V | 00:00:00 | 01:28:02 | 08:30:00 | |
| IW2NTF | 2026-09-06 00:01:41 | 44.42792 | 12.04006 | 61° | 20km/h | 20643m | 5.2m/s | -54.9°C | 4.8% | 0hPa | 2.6V | 08:30:00 | 01:28:04 | 00:00:00 | |
| IW2NTF | 2026-09-06 00:01:32 | 44.42777 | 12.03945 | 125° | 7km/h | 20591m | 5.4m/s | -54.7°C | 4.7% | 0hPa | 2.7V | 08:30:00 | 01:27:54 | 00:00:00 | |
| DO3MHA-11 | 2026-09-06 00:01:31 | 44.42779 | 12.03940 | 105° | 15km/h | 20580m | 4.8m/s | -54.7°C | 4.6% | 0hPa | 2.7V | 00:00:00 | 01:27:52 | 00:00:00 | |
| IW2NTF | 2026-09-06 00:01:22 | 44.42775 | 12.03891 | 73° | 15km/h | 20537m | 5.4m/s | -56°C | 5% | 0hPa | 2.7V | 08:30:00 | 01:27:44 | 00:00:00 | |
| IW2NTF | 2026-09-06 00:01:12 | 44.42797 | 12.03879 | 127° | 16km/h | 20486m | 4.5m/s | -56.5°C | 5.1% | 0hPa | 2.6V | 08:30:00 | 01:27:34 | 00:00:00 | |
| IW2NTF | 2026-09-06 00:01:02 | 44.42822 | 12.03835 | 126° | 15km/h | 20435m | 5.1m/s | -56.9°C | 5.2% | 0hPa | 2.7V | 08:30:00 | 01:27:24 | 00:00:00 | |
| DO3MHA-11 | 2026-09-06 00:00:58 | 44.42829 | 12.03819 | 118° | 18km/h | 20419m | 4.0m/s | -57.2°C | 5.3% | 0hPa | 2.6V | 00:00:00 | 01:27:21 | 00:00:00 | |
| IW2NTF | 2026-09-06 00:00:52 | 44.42841 | 12.03771 | 104° | 22km/h | 20377m | 5.9m/s | -57.9°C | 5.6% | 0hPa | 2.6V | 08:30:00 | 01:27:13 | 00:00:00 | |
| DO3MHA-11 | 2026-09-06 00:00:47 | 44.42845 | 12.03754 | 113° | 35km/h | 20368m | 4.1m/s | -58.0°C | 5.6% | 0hPa | 2.7V | 00:00:00 | 01:27:11 | 00:00:00 | |
| IW2NTF | 2026-09-06 00:00:41 | 44.42862 | 12.03661 | 96° | 35km/h | 20324m | 5.5m/s | -58°C | 5.5% | 0hPa | 2.7V | 08:30:00 | 01:27:03 | 00:00:00 | |
| DO3MHA-11 | 2026-09-06 00:00:41 | 44.42864 | 12.03637 | 95° | 27km/h | 20313m | 4.9m/s | -58.2°C | 5.6% | 0hPa | 2.6V | 00:00:00 | 01:27:01 | 00:00:00 | |
| IW2NTF | 2026-09-06 00:00:35 | 44.42876 | 12.03566 | 116° | 24km/h | 20269m | 5.1m/s | -58.4°C | 5.7% | 0hPa | 2.6V | 08:30:00 | 01:26:53 | 00:00:00 | |
| DO3MHA-11 | 2026-09-06 00:00:27 | 44.42881 | 12.03549 | 111° | 26km/h | 20259m | 6.0m/s | -58.4°C | 5.7% | 0hPa | 2.7V | 00:00:00 | 01:26:51 | 00:00:00 | |
| IW2NTF | 2026-09-06 00:00:22 | 44.42894 | 12.03481 | 104° | 24km/h | 20216m | 6.3m/s | -58.6°C | 5.8% | 0hPa | 2.7V | 08:30:00 | 01:26:43 | 00:00:00 | |
| DO3MHA-11 | 2026-09-06 00:00:20 | 44.42897 | 12.03463 | 102° | 31km/h | 20206m | 5.7m/s | -58.5°C | 5.8% | 0hPa | 2.7V | 00:00:00 | 01:26:41 | 00:00:00 | |
| IW2NTF | 2026-09-06 00:00:16 | 44.42898 | 12.03378 | 86° | 35km/h | 20166m | 5m/s | -58.4°C | 5.8% | 0hPa | 2.6V | 08:30:00 | 01:26:33 | 00:00:00 | |
| DO3MHA-11 | 2026-09-06 00:00:10 | 44.42896 | 12.03355 | 82° | 27km/h | 20155m | 4.8m/s | -58.4°C | 5.9% | 0hPa | 2.7V | 00:00:00 | 01:26:31 | 00:00:00 | |
| IW2NTF | 2026-09-06 00:00:04 | 44.42896 | 12.03269 | 91° | 31km/h | 20106m | 6.2m/s | -58.7°C | 5.9% | 0hPa | 2.7V | 08:30:00 | 01:26:22 | 00:00:00 | |
| DO3MHA-11 | 2026-09-05 23:59:57 | 44.42896 | 12.03258 | 92° | 20km/h | 20101m | 4.5m/s | -58.7°C | 5.9% | 0hPa | 2.6V | 00:00:00 | 01:26:21 | 00:00:00 | |
| IW2NTF | 2026-09-05 23:59:54 | 44.42897 | 12.03192 | 83° | 13km/h | 20052m | 5.5m/s | -58.5°C | 5.9% | 0hPa | 2.6V | 08:30:00 | 01:26:12 | 00:00:00 | |
| IW2NTF | 2026-09-05 23:59:44 | 44.42912 | 12.03140 | 117° | 11km/h | 19999m | 4.9m/s | -58.2°C | 5.6% | 0hPa | 2.7V | 08:30:00 | 01:26:02 | 00:00:00 | |
| DO3MHA-11 | 2026-09-05 23:59:37 | 44.42913 | 12.03136 | 118° | 15km/h | 19994m | 4.8m/s | -58.1°C | 5.6% | 0hPa | 2.6V | 00:00:00 | 01:26:01 | 00:00:00 | |
| IW2NTF | 2026-09-05 23:59:34 | 44.42933 | 12.03098 | 128° | 16km/h | 19946m | 5.9m/s | -58.3°C | 5.6% | 0hPa | 2.6V | 08:30:00 | 01:25:52 | 00:00:00 | |
| DO3MHA-11 | 2026-09-05 23:59:27 | 44.42935 | 12.03093 | 134° | 18km/h | 19942m | 3.9m/s | -58.3°C | 5.7% | 0hPa | 2.7V | 00:00:00 | 01:25:51 | 00:00:00 | |
| IW2NTF | 2026-09-05 23:59:23 | 44.42969 | 12.03062 | 143° | 18km/h | 19894m | 6.4m/s | -58.3°C | 5.5% | 0hPa | 2.7V | 08:30:00 | 01:25:42 | 00:00:00 | |
| DO3MHA-11 | 2026-09-05 23:59:18 | 44.42972 | 12.03058 | 142° | 20km/h | 19889m | 4.7m/s | -58.3°C | 5.5% | 0hPa | 2.7V | 00:00:00 | 01:25:41 | 00:00:00 | |
| IW2NTF | 2026-09-05 23:59:13 | 44.43007 | 12.03016 | 129° | 24km/h | 19843m | 6m/s | -58.9°C | 5.8% | 0hPa | 2.6V | 08:30:00 | 01:25:32 | 00:00:00 | |
| DO3MHA-11 | 2026-09-05 23:59:07 | 44.43010 | 12.03009 | 125° | 24km/h | 19838m | 5.1m/s | -58.9°C | 5.9% | 0hPa | 2.7V | 00:00:00 | 01:25:31 | 00:00:00 | |
| IW2NTF | 2026-09-05 23:59:03 | 44.43037 | 12.02947 | 114° | 16km/h | 19790m | 5.7m/s | -59°C | 6% | 0hPa | 2.7V | 08:30:00 | 01:25:22 | 00:00:00 | |
| DO3MHA-11 | 2026-09-05 23:58:57 | 44.43038 | 12.02941 | 110° | 20km/h | 19785m | 5.4m/s | -58.9°C | 6.0% | 0hPa | 2.6V | 00:00:00 | 01:25:21 | 00:00:00 | |
| IW2NTF | 2026-09-05 23:58:54 | 44.43053 | 12.02879 | 108° | 27km/h | 19739m | 5.2m/s | -58.7°C | 5.9% | 0hPa | 2.6V | 08:30:00 | 01:25:12 | 00:00:00 | |
| DO3MHA-11 | 2026-09-05 23:58:47 | 44.43055 | 12.02870 | 103° | 18km/h | 19734m | 5.4m/s | -58.6°C | 5.8% | 0hPa | 2.6V | 00:00:00 | 01:25:11 | 00:00:00 | |
| IW2NTF | 2026-09-05 23:58:43 | 44.43064 | 12.02813 | 106° | 13km/h | 19686m | 6m/s | -58.7°C | 5.8% | 0hPa | 2.6V | 08:30:00 | 01:25:02 | 00:00:00 | |
| DO3MHA-11 | 2026-09-05 23:58:37 | 44.43065 | 12.02808 | 106° | 22km/h | 19680m | 4.8m/s | -58.6°C | 5.9% | 0hPa | 2.6V | 00:00:00 | 01:25:01 | 00:00:00 | |
| IW2NTF | 2026-09-05 23:58:33 | 44.43083 | 12.02741 | 115° | 18km/h | 19633m | 5.7m/s | -58.7°C | 5.9% | 0hPa | 2.6V | 08:30:00 | 01:24:52 | 00:00:00 | |
| DO3MHA-11 | 2026-09-05 23:58:27 | 44.43085 | 12.02736 | 118° | 20km/h | 19629m | 4.3m/s | -58.6°C | 5.9% | 0hPa | 2.6V | 00:00:00 | 01:24:51 | 00:00:00 | |
| IW2NTF | 2026-09-05 23:58:24 | 44.43111 | 12.02677 | 120° | 29km/h | 19586m | 5.5m/s | -58.4°C | 6% | 0hPa | 2.6V | 08:30:00 | 01:24:42 | 00:00:00 | |
| IW2NTF | 2026-09-05 23:58:14 | 44.43142 | 12.02597 | 126° | 26km/h | 19536m | 4m/s | -58.1°C | 5.9% | 0hPa | 2.6V | 08:30:00 | 01:24:32 | 00:00:00 | |
| IW2NTF | 2026-09-05 23:58:03 | 44.43170 | 12.02500 | 110° | 33km/h | 19486m | 4.2m/s | -57.7°C | 5.6% | 0hPa | 2.6V | 08:30:00 | 01:24:22 | 00:00:00 | |
| DO3MHA-11 | 2026-09-05 23:58:01 | 44.43162 | 12.02534 | 105° | 31km/h | 19502m | 5.6m/s | -57.7°C | 5.7% | 0hPa | 2.7V | 00:00:00 | 01:24:25 | 08:30:00 | |
| IW2NTF | 2026-09-05 23:57:53 | 44.43203 | 12.02400 | 110° | 35km/h | 19436m | 4.7m/s | -57.3°C | 5.3% | 0hPa | 2.6V | 08:30:00 | 01:24:12 | 00:00:00 | |
| DO3MHA-11 | 2026-09-05 23:57:51 | 44.43193 | 12.02432 | 114° | 31km/h | 19452m | 4.3m/s | -57.4°C | 5.4% | 0hPa | 2.6V | 00:00:00 | 01:24:15 | 00:00:00 | |
| IW2NTF | 2026-09-05 23:57:42 | 44.43223 | 12.02291 | 107° | 35km/h | 19384m | 4.4m/s | -58°C | 5.4% | 0hPa | 2.6V | 08:30:00 | 01:24:02 | 00:00:00 | |
| DO3MHA-11 | 2026-09-05 23:57:39 | 44.43220 | 12.02303 | 109° | 37km/h | 19390m | 4.9m/s | -57.9°C | 5.4% | 0hPa | 2.6V | 00:00:00 | 01:24:03 | 00:00:00 | |
| IW2NTF | 2026-09-05 23:57:33 | 44.43235 | 12.02164 | 89° | 38km/h | 19336m | 4m/s | -59.1°C | 5.8% | 0hPa | 2.6V | 08:30:00 | 01:23:52 | 00:00:00 | |
| DO3MHA-11 | 2026-09-05 23:57:29 | 44.43234 | 12.02177 | 91° | 33km/h | 19340m | 5.0m/s | -59.0°C | 5.7% | 0hPa | 2.7V | 00:00:00 | 01:23:53 | 00:00:00 | |
| IW2NTF | 2026-09-05 23:57:23 | 44.43234 | 12.02027 | 92° | 29km/h | 19286m | 5.3m/s | -59.5°C | 6.1% | 0hPa | 2.7V | 08:30:00 | 01:23:42 | 00:00:00 | |
| IW2NTF | 2026-09-05 23:57:13 | 44.43231 | 12.01947 | 91° | 27km/h | 19236m | 4.2m/s | -59.7°C | 6% | 0hPa | 2.6V | 08:30:00 | 01:23:32 | 00:00:00 | |
| IW2NTF | 2026-09-05 23:57:04 | 44.43251 | 12.01860 | 124° | 24km/h | 19186m | 4.9m/s | -59.9°C | 6.1% | 0hPa | 2.7V | 08:30:00 | 01:23:22 | 00:00:00 | |
| DO3MHA-11 | 2026-09-05 23:56:59 | 44.43248 | 12.01867 | 124° | 29km/h | 19191m | 5.7m/s | -59.8°C | 6.1% | 0hPa | 2.6V | 00:00:00 | 01:23:23 | 00:00:00 | |
| IW2NTF | 2026-09-05 23:56:54 | 44.43285 | 12.01764 | 129° | 37km/h | 19134m | 4.7m/s | -60.3°C | 6.3% | 0hPa | 2.6V | 08:30:00 | 01:23:12 | 00:00:00 | |
| DO3MHA-11 | 2026-09-05 23:56:49 | 44.43280 | 12.01774 | 125° | 33km/h | 19139m | 5.9m/s | -60.3°C | 6.3% | 0hPa | 2.7V | 00:00:00 | 01:23:13 | 00:00:00 | |
| IW2NTF | 2026-09-05 23:56:43 | 44.43335 | 12.01673 | 126° | 42km/h | 19082m | 4.3m/s | -60.4°C | 6.4% | 0hPa | 2.7V | 08:30:00 | 01:23:02 | 00:00:00 | |
| DO3MHA-11 | 2026-09-05 23:56:39 | 44.43329 | 12.01684 | 125° | 44km/h | 19087m | 5.5m/s | -60.3°C | 6.4% | 0hPa | 2.6V | 00:00:00 | 01:23:03 | 00:00:00 | |
| IW2NTF | 2026-09-05 23:56:33 | 44.43402 | 12.01555 | 132° | 38km/h | 19031m | 5.2m/s | -60.4°C | 6.5% | 0hPa | 2.6V | 08:30:00 | 01:22:52 | 00:00:00 | |
| DO3MHA-11 | 2026-09-05 23:56:29 | 44.43396 | 12.01564 | 131° | 42km/h | 19036m | 5.2m/s | -60.4°C | 6.5% | 0hPa | 2.6V | 00:00:00 | 01:22:53 | 00:00:00 | |
| IW2NTF | 2026-09-05 23:56:23 | 44.43458 | 12.01425 | 117° | 47km/h | 18980m | 5.9m/s | -60.1°C | 6.4% | 0hPa | 2.6V | 08:30:00 | 01:22:42 | 00:00:00 | |
| DO3MHA-11 | 2026-09-05 23:56:19 | 44.43453 | 12.01440 | 117° | 42km/h | 18986m | 4.3m/s | -60.1°C | 6.4% | 0hPa | 2.6V | 00:00:00 | 01:22:43 | 00:00:00 | |
| IW2NTF | 2026-09-05 23:56:13 | 44.43513 | 12.01298 | 112° | 47km/h | 18928m | 6.2m/s | -59.8°C | 6.2% | 0hPa | 2.6V | 08:30:00 | 01:22:32 | 00:00:00 | |
| DO3MHA-11 | 2026-09-05 23:56:09 | 44.43508 | 12.01313 | 115° | 42km/h | 18934m | 4.4m/s | -59.7°C | 6.2% | 0hPa | 2.6V | 00:00:00 | 01:22:33 | 08:30:00 | |
| IW2NTF | 2026-09-05 23:56:03 | 44.43554 | 12.01153 | 110° | 38km/h | 18879m | 5m/s | -59.8°C | 6.2% | 0hPa | 2.6V | 08:30:00 | 01:22:22 | 00:00:00 | |
| DO3MHA-11 | 2026-09-05 23:55:56 | 44.43561 | 12.01127 | 113° | 42km/h | 18869m | 4.3m/s | -59.8°C | 6.3% | 0hPa | 2.7V | 00:00:00 | 01:22:20 | 00:00:00 | |
| IW2NTF | 2026-09-05 23:55:54 | 44.43577 | 12.01011 | 92° | 42km/h | 18826m | 5.4m/s | -59.8°C | 6.2% | 0hPa | 2.7V | 08:30:00 | 01:22:12 | 00:00:00 | |
| DO3MHA-11 | 2026-09-05 23:55:46 | 44.43579 | 12.00982 | 96° | 35km/h | 18817m | 3.7m/s | -59.8°C | 6.2% | 0hPa | 2.6V | 00:00:00 | 01:22:10 | 00:00:00 | |
| IW2NTF | 2026-09-05 23:55:43 | 44.43579 | 12.00884 | 87° | 37km/h | 18774m | 6m/s | -59.9°C | 6.2% | 0hPa | 2.6V | 08:30:00 | 01:22:02 | 00:00:00 | |
| DO3MHA-11 | 2026-09-05 23:55:36 | 44.43579 | 12.00857 | 87° | 35km/h | 18764m | 5.6m/s | -60.0°C | 6.3% | 0hPa | 2.7V | 00:00:00 | 01:22:00 | 00:00:00 | |
| IW2NTF | 2026-09-05 23:55:33 | 44.43569 | 12.00757 | 80° | 29km/h | 18724m | 5.7m/s | -59.9°C | 6.3% | 0hPa | 2.7V | 08:30:00 | 01:21:52 | 00:00:00 | |
| DO3MHA-11 | 2026-09-05 23:55:26 | 44.43567 | 12.00737 | 84° | 29km/h | 18715m | 3.7m/s | -59.9°C | 6.3% | 0hPa | 2.7V | 00:00:00 | 01:21:50 | 00:00:00 | |
| IW2NTF | 2026-09-05 23:55:23 | 44.43562 | 12.00658 | 93° | 29km/h | 18674m | 5m/s | -59.7°C | 6.4% | 0hPa | 2.7V | 08:30:00 | 01:21:42 | 00:00:00 | |
| DO3MHA-11 | 2026-09-05 23:55:16 | 44.43563 | 12.00636 | 93° | 29km/h | 18664m | 4.1m/s | -59.6°C | 6.4% | 0hPa | 2.6V | 00:00:00 | 01:21:40 | 00:00:00 | |
| IW2NTF | 2026-09-05 23:55:13 | 44.43560 | 12.00554 | 88° | 31km/h | 18624m | 4.6m/s | -59.6°C | 6.2% | 0hPa | 2.6V | 08:30:00 | 01:21:32 | 00:00:00 | |
| DO3MHA-11 | 2026-09-05 23:55:06 | 44.43560 | 12.00530 | 91° | 29km/h | 18614m | 4.0m/s | -59.5°C | 6.1% | 0hPa | 2.6V | 00:00:00 | 01:21:30 | 00:00:00 | |
| IW2NTF | 2026-09-05 23:55:02 | 44.43563 | 12.00449 | 95° | 27km/h | 18570m | 6m/s | -59.3°C | 6.1% | 0hPa | 2.6V | 08:30:00 | 01:21:22 | 00:00:00 | |
| DO3MHA-11 | 2026-09-05 23:54:56 | 44.43565 | 12.00428 | 99° | 31km/h | 18561m | 4.5m/s | -59.3°C | 6.1% | 0hPa | 2.6V | 00:00:00 | 01:21:20 | 00:00:00 | |
| IW2NTF | 2026-09-05 23:54:53 | 44.43576 | 12.00344 | 97° | 31km/h | 18519m | 5.9m/s | -59.5°C | 6.1% | 0hPa | 2.6V | 08:30:00 | 01:21:12 | 00:00:00 | |
| DO3MHA-11 | 2026-09-05 23:54:46 | 44.43579 | 12.00323 | 100° | 31km/h | 18510m | 5.8m/s | -59.4°C | 6.0% | 0hPa | 2.6V | 00:00:00 | 01:21:10 | 00:00:00 | |
| IW2NTF | 2026-09-05 23:54:43 | 44.43597 | 12.00242 | 111° | 35km/h | 18469m | 5.6m/s | -59.9°C | 6.2% | 0hPa | 2.6V | 08:30:00 | 01:21:02 | 00:00:00 | |
| DO3MHA-11 | 2026-09-05 23:54:36 | 44.43604 | 12.00220 | 120° | 35km/h | 18460m | 6.1m/s | -59.9°C | 6.2% | 0hPa | 2.7V | 00:00:00 | 01:21:00 | 08:30:00 | |
| IW2NTF | 2026-09-05 23:54:33 | 44.43644 | 12.00141 | 131° | 33km/h | 18416m | 5.9m/s | -60.2°C | 6.4% | 0hPa | 2.7V | 08:30:00 | 01:20:52 | 00:00:00 | |
| DO3MHA-11 | 2026-09-05 23:54:26 | 44.43654 | 12.00123 | 131° | 37km/h | 18407m | 4.4m/s | -60.2°C | 6.4% | 0hPa | 2.7V | 00:00:00 | 01:20:50 | 00:00:00 | |
| IW2NTF | 2026-09-05 23:54:20 | 44.43703 | 12.00050 | 132° | 42km/h | 18367m | 5.2m/s | -60.2°C | 6.4% | 0hPa | 2.7V | 08:30:00 | 01:20:42 | 00:00:00 | |
| DO3MHA-11 | 2026-09-05 23:54:16 | 44.43718 | 12.00027 | 132° | 38km/h | 18357m | 4.6m/s | -60.2°C | 6.5% | 0hPa | 2.6V | 00:00:00 | 01:20:40 | 00:00:00 | |
| IW2NTF | 2026-09-05 23:54:13 | 44.43776 | 11.99956 | 139° | 37km/h | 18318m | 3.5m/s | -60.2°C | 6.5% | 0hPa | 2.6V | 08:30:00 | 01:20:32 | 00:00:00 | |
| DO3MHA-11 | 2026-09-05 23:54:06 | 44.43790 | 11.99938 | 134° | 42km/h | 18309m | 5.0m/s | -60.1°C | 6.5% | 0hPa | 2.7V | 00:00:00 | 01:20:30 | 00:00:00 | |
| IW2NTF | 2026-09-05 23:54:00 | 44.43850 | 11.99859 | 136° | 44km/h | 18271m | 5.6m/s | -60.1°C | 6.6% | 0hPa | 2.7V | 08:30:00 | 01:20:22 | 00:00:00 | |
| DO3MHA-11 | 2026-09-05 23:53:56 | 44.43866 | 11.99838 | 133° | 44km/h | 18261m | 6.1m/s | -60.1°C | 6.6% | 0hPa | 2.7V | 00:00:00 | 01:20:20 | 00:00:00 | |
| IW2NTF | 2026-09-05 23:53:53 | 44.43924 | 11.99750 | 140° | 46km/h | 18220m | 5m/s | -59.9°C | 6.4% | 0hPa | 2.7V | 08:30:00 | 01:20:12 | 00:00:00 | |
| DO3MHA-11 | 2026-09-05 23:53:45 | 44.43949 | 11.99719 | 137° | 40km/h | 18205m | 4.5m/s | -59.7°C | 6.4% | 0hPa | 2.6V | 00:00:00 | 01:20:09 | 00:00:00 | |
| IW2NTF | 2026-09-05 23:53:39 | 44.43988 | 11.99641 | 121° | 40km/h | 18169m | 5.5m/s | -59.5°C | 6.3% | 0hPa | 2.6V | 08:30:00 | 01:20:02 | 00:00:00 | |
| DO3MHA-11 | 2026-09-05 23:53:35 | 44.44007 | 11.99605 | 130° | 42km/h | 18155m | 5.3m/s | -59.5°C | 6.3% | 0hPa | 2.7V | 00:00:00 | 01:19:59 | 00:00:00 | |
| IW2NTF | 2026-09-05 23:53:33 | 44.44051 | 11.99520 | 119° | 42km/h | 18121m | 5m/s | -59.3°C | 6.4% | 0hPa | 2.6V | 08:30:00 | 01:19:52 | 00:00:00 | |
| DO3MHA-11 | 2026-09-05 23:53:25 | 44.44066 | 11.99483 | 120° | 40km/h | 18106m | 4.6m/s | -59.2°C | 6.3% | 0hPa | 2.7V | 00:00:00 | 01:19:49 | 00:00:00 | |
| IW2NTF | 2026-09-05 23:53:24 | 44.44101 | 11.99395 | 114° | 44km/h | 18070m | 4.5m/s | -58.9°C | 6.2% | 0hPa | 2.7V | 08:30:00 | 01:19:42 | 00:00:00 | |
| DO3MHA-11 | 2026-09-05 23:53:15 | 44.44113 | 11.99354 | 113° | 40km/h | 18056m | 5.8m/s | -58.8°C | 6.1% | 0hPa | 2.7V | 00:00:00 | 01:19:39 | 00:00:00 | |
| IW2NTF | 2026-09-05 23:53:11 | 44.44155 | 11.99246 | 113° | 40km/h | 18011m | 3.8m/s | -58.7°C | 5.8% | 0hPa | 2.7V | 08:30:00 | 01:19:30 | 00:00:00 | |
| DO3MHA-11 | 2026-09-05 23:53:05 | 44.44159 | 11.99233 | 114° | 40km/h | 18007m | 5.9m/s | -58.6°C | 5.8% | 0hPa | 2.6V | 00:00:00 | 01:19:29 | 08:30:00 | |
| IW2NTF | 2026-09-05 23:52:58 | 44.44197 | 11.99119 | 116° | 38km/h | 17964m | 3.5m/s | -59.6°C | 6.3% | 0hPa | 2.7V | 08:30:00 | 01:19:20 | 00:00:00 | |
| DO3MHA-11 | 2026-09-05 23:52:55 | 44.44202 | 11.99107 | 116° | 38km/h | 17960m | 5.3m/s | -59.7°C | 6.4% | 0hPa | 2.6V | 00:00:00 | 01:19:19 | 00:00:00 | |
| IW2NTF | 2026-09-05 23:52:51 | 44.44241 | 11.98995 | 123° | 37km/h | 17916m | 5.2m/s | -60°C | 6.5% | 0hPa | 2.6V | 08:30:00 | 01:19:10 | 00:00:00 | |
| DO3MHA-11 | 2026-09-05 23:52:45 | 44.44246 | 11.98984 | 125° | 29km/h | 17912m | 4.1m/s | -60.0°C | 6.5% | 0hPa | 2.6V | 00:00:00 | 01:19:09 | 00:00:00 | |
| IW2NTF | 2026-09-05 23:52:39 | 44.44281 | 11.98903 | 121° | 27km/h | 17868m | 3.1m/s | -59.8°C | 6.6% | 0hPa | 2.6V | 08:30:00 | 01:19:00 | 00:00:00 | |
| DO3MHA-11 | 2026-09-05 23:52:35 | 44.44284 | 11.98895 | 120° | 26km/h | 17864m | 5.7m/s | -59.7°C | 6.6% | 0hPa | 2.6V | 00:00:00 | 01:18:59 | 00:00:00 | |
| IW2NTF | 2026-09-05 23:52:28 | 44.44315 | 11.98828 | 119° | 24km/h | 17820m | 5.4m/s | -59.5°C | 6.5% | 0hPa | 2.7V | 08:30:00 | 01:18:50 | 00:00:00 | |
| DO3MHA-11 | 2026-09-05 23:52:25 | 44.44318 | 11.98821 | 115° | 24km/h | 17815m | 4.9m/s | -59.4°C | 6.5% | 0hPa | 2.7V | 00:00:00 | 01:18:49 | 00:00:00 | |
| IW2NTF | 2026-09-05 23:52:22 | 44.44337 | 11.98752 | 120° | 20km/h | 17773m | 3.7m/s | -59.3°C | 6.4% | 0hPa | 2.7V | 08:30:00 | 01:18:40 | 00:00:00 | |
| DO3MHA-11 | 2026-09-05 23:52:15 | 44.44340 | 11.98745 | 118° | 22km/h | 17769m | 5.9m/s | -59.2°C | 6.4% | 0hPa | 2.6V | 00:00:00 | 01:18:39 | 00:00:00 | |
| IW2NTF | 2026-09-05 23:52:07 | 44.44368 | 11.98688 | 127° | 22km/h | 17724m | 4.8m/s | -59.2°C | 6.3% | 0hPa | 2.6V | 08:30:00 | 01:18:30 | 00:00:00 | |
| DO3MHA-11 | 2026-09-05 23:52:05 | 44.44371 | 11.98682 | 123° | 18km/h | 17719m | 5.2m/s | -59.2°C | 6.4% | 0hPa | 2.6V | 00:00:00 | 01:18:29 | 00:00:00 | |
| IW2NTF | 2026-09-05 23:52:01 | 44.44394 | 11.98636 | 131° | 11km/h | 17674m | 5.9m/s | -59.4°C | 6.4% | 0hPa | 2.6V | 08:30:00 | 01:18:20 | 00:00:00 | |
| DO3MHA-11 | 2026-09-05 23:51:55 | 44.44396 | 11.98633 | 133° | 18km/h | 17670m | 4.1m/s | -59.3°C | 6.4% | 0hPa | 2.6V | 00:00:00 | 01:18:19 | 00:00:00 | |
| IW2NTF | 2026-09-05 23:51:47 | 44.44431 | 11.98599 | 142° | 22km/h | 17624m | 5.7m/s | -59.8°C | 6.7% | 0hPa | 2.6V | 08:30:00 | 01:18:10 | 00:00:00 | |
| DO3MHA-11 | 2026-09-05 23:51:45 | 44.44435 | 11.98594 | 140° | 22km/h | 17620m | 4.9m/s | -59.7°C | 6.7% | 0hPa | 2.6V | 00:00:00 | 01:18:09 | 00:00:00 | |
| IW2NTF | 2026-09-05 23:51:38 | 44.44473 | 11.98550 | 133° | 24km/h | 17573m | 4m/s | -59.9°C | 6.6% | 0hPa | 2.6V | 08:30:00 | 01:18:00 | 00:00:00 | |
| DO3MHA-11 | 2026-09-05 23:51:35 | 44.44478 | 11.98544 | 138° | 29km/h | 17568m | 6.2m/s | -59.9°C | 6.6% | 0hPa | 2.7V | 00:00:00 | 01:17:59 | 08:30:00 | |
| IW2NTF | 2026-09-05 23:51:32 | 44.44526 | 11.98479 | 138° | 27km/h | 17520m | 6m/s | -60.3°C | 6.7% | 0hPa | 2.6V | 08:30:00 | 01:17:50 | 00:00:00 | |
| DO3MHA-11 | 2026-09-05 23:51:25 | 44.44532 | 11.98473 | 141° | 38km/h | 17515m | 4.5m/s | -60.4°C | 6.8% | 0hPa | 2.6V | 00:00:00 | 01:17:49 | 00:00:00 | |
| IW2NTF | 2026-09-05 23:51:21 | 44.44596 | 11.98384 | 134° | 44km/h | 17469m | 5.2m/s | -61.1°C | 7.3% | 0hPa | 2.6V | 08:30:00 | 01:17:40 | 00:00:00 | |
| DO3MHA-11 | 2026-09-05 23:51:15 | 44.44604 | 11.98373 | 139° | 49km/h | 17464m | 5.7m/s | -61.2°C | 7.4% | 0hPa | 2.7V | 00:00:00 | 01:17:39 | 00:00:00 | |
| IW2NTF | 2026-09-05 23:51:07 | 44.44682 | 11.98277 | 136° | 53km/h | 17416m | 5m/s | -61.3°C | 7.5% | 0hPa | 2.7V | 08:30:00 | 01:17:30 | 00:00:00 | |
| DO3MHA-11 | 2026-09-05 23:51:02 | 44.44722 | 11.98225 | 135° | 47km/h | 17396m | 5.9m/s | -61.3°C | 7.5% | 0hPa | 2.7V | 00:00:00 | 01:17:26 | 00:00:00 | |
| IW2NTF | 2026-09-05 23:51:01 | 44.44768 | 11.98150 | 120° | 46km/h | 17363m | 4.1m/s | -61.2°C | 7.5% | 0hPa | 2.7V | 08:30:00 | 01:17:20 | 00:00:00 | |
| DO3MHA-11 | 2026-09-05 23:50:52 | 44.44795 | 11.98094 | 126° | 49km/h | 17343m | 5.8m/s | -61.2°C | 7.3% | 0hPa | 2.7V | 00:00:00 | 01:17:16 | 00:00:00 | |
| IW2NTF | 2026-09-05 23:50:47 | 44.44843 | 11.97997 | 121° | 55km/h | 17312m | 3.9m/s | -61.4°C | 7.3% | 0hPa | 2.7V | 08:30:00 | 01:17:10 | 00:00:00 | |
| IW2NTF | 2026-09-05 23:50:40 | 44.44904 | 11.97843 | 112° | 58km/h | 17261m | 5m/s | -61.6°C | 7.8% | 0hPa | 2.7V | 08:30:00 | 01:17:00 | 00:00:00 | |
| DO3MHA-11 | 2026-09-05 23:50:39 | 44.44887 | 11.97894 | 118° | 57km/h | 17276m | 4.0m/s | -61.5°C | 7.7% | 0hPa | 2.7V | 00:00:00 | 01:17:03 | 00:00:00 | |
| DO3MHA-11 | 2026-09-05 23:50:29 | 44.44949 | 11.97711 | 121° | 58km/h | 17225m | 4.4m/s | -61.9°C | 7.8% | 0hPa | 2.7V | 00:00:00 | 01:16:53 | 00:00:00 | |
| IW2NTF | 2026-09-05 23:50:28 | 44.44970 | 11.97656 | 115° | 58km/h | 17209m | 5m/s | -62°C | 8% | 0hPa | 2.6V | 08:30:00 | 01:16:50 | 00:00:00 | |
| DO3MHA-11 | 2026-09-05 23:50:19 | 44.45002 | 11.97524 | 107° | 53km/h | 17172m | 4.3m/s | -61.7°C | 7.8% | 0hPa | 2.6V | 00:00:00 | 01:16:43 | 00:00:00 | |
| IW2NTF | 2026-09-05 23:50:17 | 44.45016 | 11.97467 | 111° | 57km/h | 17157m | 6.4m/s | -61.7°C | 7.7% | 0hPa | 2.6V | 08:30:00 | 01:16:40 | 00:00:00 | |
| IW2NTF | 2026-09-05 23:50:08 | 44.45052 | 11.97289 | 101° | 53km/h | 17104m | 4.8m/s | -61.5°C | 7.7% | 0hPa | 2.6V | 08:30:00 | 01:16:30 | 00:00:00 | |
| IW2NTF | 2026-09-05 23:49:58 | 44.45085 | 11.97109 | 99° | 57km/h | 17052m | 4.4m/s | -61.4°C | 7.6% | 0hPa | 2.6V | 08:30:00 | 01:16:20 | 00:00:00 | |
| DO3MHA-11 | 2026-09-05 23:49:48 | 44.45098 | 11.96967 | 100° | 47km/h | 17008m | 6.7m/s | 0°C | 0% | 0hPa | 2.6V | 00:00:00 | 01:16:12 | 00:00:00 | |
| IW2NTF | 2026-09-05 23:49:47 | 44.45101 | 11.96935 | 95° | 44km/h | 16995m | 4.8m/s | -61.5°C | 7.7% | 0hPa | 2.6V | 08:30:00 | 01:16:10 | 00:00:00 | |
| DO3MHA-11 | 2026-09-05 23:49:38 | 44.45103 | 11.96797 | 88° | 46km/h | 16951m | 3.7m/s | 0°C | 0% | 0hPa | 2.6V | 00:00:00 | 01:16:02 | 00:00:00 | |
| IW2NTF | 2026-09-05 23:49:37 | 44.45103 | 11.96760 | 91° | 49km/h | 16940m | 3.1m/s | -61.5°C | 7.8% | 0hPa | 2.6V | 08:30:00 | 01:16:00 | 00:00:00 | |
| DO3MHA-11 | 2026-09-05 23:49:28 | 44.45104 | 11.96635 | 88° | 44km/h | 16897m | 3.6m/s | 0°C | 0% | 0hPa | 2.6V | 00:00:00 | 01:15:52 | 00:00:00 | |
| IW2NTF | 2026-09-05 23:49:27 | 44.45102 | 11.96602 | 83° | 49km/h | 16887m | 1.6m/s | -61.4°C | 7.7% | 0hPa | 2.6V | 08:30:00 | 01:15:50 | 00:00:00 | |
| IW2NTF | 2026-09-05 23:49:18 | 44.45103 | 11.96446 | 95° | 44km/h | 16838m | 2.7m/s | -61.2°C | 7.8% | 0hPa | 2.6V | 08:30:00 | 01:15:40 | 00:00:00 | |
| DO3MHA-11 | 2026-09-05 23:49:08 | 44.45095 | 11.96316 | 85° | 38km/h | 16797m | 4.5m/s | 0°C | 0% | 0hPa | 2.6V | 00:00:00 | 01:15:32 | 00:00:00 | |
| IW2NTF | 2026-09-05 23:49:07 | 44.45093 | 11.96288 | 84° | 40km/h | 16786m | 7.4m/s | -60.9°C | 7.7% | 0hPa | 2.6V | 08:30:00 | 01:15:30 | 00:00:00 | |
| IW2NTF | 2026-09-05 23:48:57 | 44.45075 | 11.96155 | 78° | 35km/h | 16731m | 10.5m/s | -60.6°C | 7.4% | 0hPa | 2.6V | 08:30:00 | 01:15:20 | 00:00:00 | |
| DO3MHA-11 | 2026-09-05 23:48:57 | 44.45077 | 11.96168 | 80° | 38km/h | 16738m | 4.3m/s | 0°C | 0% | 0hPa | 2.6V | 00:00:00 | 01:15:21 | 00:00:00 | |
| IW2NTF | 2026-09-05 23:48:50 | 44.45058 | 11.96025 | 83° | 35km/h | 16673m | 2.2m/s | -60.9°C | 7.5% | 0hPa | 2.6V | 08:30:00 | 01:15:10 | 00:00:00 | |
| DO3MHA-11 | 2026-09-05 23:48:47 | 44.45059 | 11.96037 | 77° | 33km/h | 16676m | 4.7m/s | 0°C | 0% | 0hPa | 2.6V | 00:00:00 | 01:15:11 | 00:00:00 | |
| IW2NTF | 2026-09-05 23:48:38 | 44.45063 | 11.95906 | 92° | 35km/h | 16612m | 6.2m/s | -61.9°C | 8.2% | 0hPa | 2.6V | 08:30:00 | 01:15:00 | 00:00:00 | |
| DO3MHA-11 | 2026-09-05 23:48:37 | 44.45062 | 11.95918 | 96° | 33km/h | 16618m | 5.0m/s | 0°C | 0% | 0hPa | 2.6V | 00:00:00 | 01:15:01 | 00:00:00 | |
| IW2NTF | 2026-09-05 23:48:32 | 44.45069 | 11.95789 | 98° | 35km/h | 16562m | 3.1m/s | -61.6°C | 8.3% | 0hPa | 2.6V | 08:30:00 | 01:14:50 | 00:00:00 | |
| DO3MHA-11 | 2026-09-05 23:48:27 | 44.45068 | 11.95801 | 100° | 35km/h | 16568m | 10.3m/s | 0°C | 0% | 0hPa | 2.6V | 00:00:00 | 01:14:51 | 00:00:00 | |
| IW2NTF | 2026-09-05 23:48:21 | 44.45074 | 11.95671 | 94° | 33km/h | 16507m | 3.8m/s | -61.9°C | 8.6% | 0hPa | 2.6V | 08:30:00 | 01:14:40 | 00:00:00 | |
| IW2NTF | 2026-09-05 23:48:10 | 44.45092 | 11.95544 | 97° | 37km/h | 16447m | 4.1m/s | -61.5°C | 8.4% | 0hPa | 2.6V | 08:30:00 | 01:14:30 | 00:00:00 | |
| IW2NTF | 2026-09-05 23:48:01 | 44.45103 | 11.95413 | 91° | 40km/h | 16389m | 4.4m/s | -61.2°C | 8.2% | 0hPa | 2.6V | 08:30:00 | 01:14:20 | 00:00:00 | |
| IW2NTF | 2026-09-05 23:47:44 | 44.45113 | 11.95196 | 90° | 44km/h | 16311m | 7m/s | -61.7°C | 8.8% | 0hPa | 2.6V | 08:30:00 | 01:14:06 | 00:00:00 | |
| IW2NTF | 2026-09-05 23:47:34 | 44.45129 | 11.95033 | 98° | 47km/h | 16254m | 2.7m/s | -61.2°C | 8.7% | 0hPa | 2.6V | 08:30:00 | 01:13:56 | 00:00:00 | |
| IW2NTF | 2026-09-05 23:47:24 | 44.45139 | 11.94881 | 100° | 42km/h | 16204m | 3.1m/s | -61°C | 8.8% | 0hPa | 2.6V | 08:30:00 | 01:13:46 | 00:00:00 | |
| IW2NTF | 2026-09-05 23:47:13 | 44.45156 | 11.94732 | 95° | 42km/h | 16145m | 4.7m/s | -61°C | 8.6% | 0hPa | 2.6V | 08:30:00 | 01:13:36 | 00:00:00 | |
| IW2NTF | 2026-09-05 23:47:06 | 44.45193 | 11.94595 | 116° | 46km/h | 16075m | 2m/s | -61.3°C | 9% | 0hPa | 2.8V | 08:30:00 | 01:13:26 | 00:00:00 | |
| IW2NTF | 2026-09-05 23:46:52 | 44.45241 | 11.94438 | 109° | 51km/h | 16027m | 9.2m/s | -61.4°C | 9% | 0hPa | 2.8V | 08:30:00 | 01:13:16 | 00:00:00 | |
| IW2NTF | 2026-09-05 23:46:42 | 44.45290 | 11.94234 | 103° | 60km/h | 15971m | 7m/s | -61.7°C | 9.2% | 0hPa | 2.8V | 08:30:00 | 01:13:05 | 00:00:00 | |
| IW2NTF | 2026-09-05 23:46:32 | 44.45320 | 11.94028 | 101° | 60km/h | 15915m | 1.1m/s | -62°C | 9.5% | 0hPa | 2.7V | 08:30:00 | 01:12:55 | 00:00:00 | |
| IW2NTF | 2026-09-05 23:46:22 | 44.45332 | 11.93802 | 93° | 60km/h | 15862m | 5.7m/s | -62.4°C | 10.1% | 0hPa | 2.7V | 08:30:00 | 01:12:45 | 00:00:00 | |
| IW2NTF | 2026-09-05 23:46:13 | 44.45342 | 11.93592 | 90° | 53km/h | 15805m | 4m/s | -62.1°C | 10.3% | 0hPa | 2.7V | 08:30:00 | 01:12:35 | 00:00:00 | |
| IW2NTF | 2026-09-05 23:46:06 | 44.45362 | 11.93401 | 99° | 57km/h | 15745m | 7m/s | -62°C | 10.2% | 0hPa | 2.8V | 08:30:00 | 01:12:25 | 00:00:00 | |
| IW2NTF | 2026-09-05 23:45:55 | 44.45405 | 11.93225 | 114° | 57km/h | 15682m | 3.5m/s | -61.9°C | 10.8% | 0hPa | 2.7V | 08:30:00 | 01:12:15 | 00:00:00 | |
| IW2NTF | 2026-09-05 23:45:44 | 44.45467 | 11.93067 | 123° | 46km/h | 15606m | 7.1m/s | -62.6°C | 11.2% | 0hPa | 2.8V | 08:30:00 | 01:12:05 | 00:00:00 | |
| IW2NTF | 2026-09-05 23:45:33 | 44.45558 | 11.92913 | 130° | 64km/h | 15543m | 5.2m/s | -62.6°C | 11.9% | 0hPa | 2.8V | 08:30:00 | 01:11:55 | 00:00:00 | |
| IW2NTF | 2026-09-05 23:45:22 | 44.45664 | 11.92734 | 126° | 64km/h | 15488m | 9.9m/s | -62.6°C | 12.5% | 0hPa | 2.7V | 08:30:00 | 01:11:45 | 00:00:00 | |
| IW2NTF | 2026-09-05 23:45:17 | 44.45752 | 11.92523 | 121° | 73km/h | 15433m | 3.7m/s | -63.1°C | 12.9% | 0hPa | 2.8V | 08:30:00 | 01:11:35 | 00:00:00 | |
| IW2NTF | 2026-09-05 23:45:01 | 44.45875 | 11.92250 | 118° | 77km/h | 15365m | 5.8m/s | -63.7°C | 14.3% | 0hPa | 2.7V | 08:30:00 | 01:11:23 | 00:00:00 | |
| IW2NTF | 2026-09-05 23:44:54 | 44.45972 | 11.92025 | 123° | 75km/h | 15313m | 8.8m/s | -63.9°C | 14.8% | 0hPa | 2.8V | 08:30:00 | 01:11:13 | 00:00:00 | |
| IW2NTF | 2026-09-05 23:44:41 | 44.46054 | 11.91803 | 111° | 69km/h | 15250m | 4.6m/s | -64.6°C | 17% | 0hPa | 2.7V | 08:30:00 | 01:11:03 | 00:00:00 | |
| IW2NTF | 2026-09-05 23:44:35 | 44.46131 | 11.91585 | 116° | 66km/h | 15195m | 6.6m/s | -64.6°C | 17.7% | 0hPa | 2.8V | 08:30:00 | 01:10:53 | 00:00:00 | |
| IW2NTF | 2026-09-05 23:44:20 | 44.46217 | 11.91371 | 119° | 73km/h | 15133m | 7.5m/s | -64.5°C | 19.3% | 0hPa | 2.7V | 08:30:00 | 01:10:43 | 00:00:00 | |
| IW2NTF | 2026-09-05 23:44:13 | 44.46321 | 11.91098 | 120° | 80km/h | 15062m | 5.2m/s | -65°C | 22% | 0hPa | 2.8V | 08:30:00 | 01:10:31 | 00:00:00 | |
| IW2NTF | 2026-09-05 23:43:58 | 44.46419 | 11.90856 | 115° | 78km/h | 15005m | 4.9m/s | -64.9°C | 24.3% | 0hPa | 2.7V | 08:30:00 | 01:10:21 | 00:00:00 | |
| IW2NTF | 2026-09-05 23:43:52 | 44.46508 | 11.90605 | 115° | 82km/h | 14963m | 8.9m/s | -64.8°C | 27% | 0hPa | 2.8V | 08:30:00 | 01:10:11 | 00:00:00 | |
| IW2NTF | 2026-09-05 23:43:38 | 44.46600 | 11.90345 | 115° | 80km/h | 14904m | 10.8m/s | -64.5°C | 28% | 0hPa | 2.7V | 08:30:00 | 01:10:01 | 00:00:00 | |
| IW2NTF | 2026-09-05 23:43:27 | 44.46683 | 11.90094 | 116° | 82km/h | 14846m | 2.1m/s | -64.5°C | 30.1% | 0hPa | 2.7V | 08:30:00 | 01:09:51 | 00:00:00 | |
| IW2NTF | 2026-09-05 23:43:17 | 44.46762 | 11.89852 | 109° | 68km/h | 14791m | 8.6m/s | -66.6°C | 38.6% | 0hPa | 2.8V | 08:30:00 | 01:09:41 | 00:00:00 | |
| IW2NTF | 2026-09-05 23:43:08 | 44.46834 | 11.89655 | 120° | 62km/h | 14733m | 8.5m/s | -67.1°C | 41.4% | 0hPa | 2.7V | 08:30:00 | 01:09:31 | 00:00:00 | |
| IW2NTF | 2026-09-05 23:43:02 | 44.46928 | 11.89459 | 130° | 68km/h | 14677m | 3.2m/s | -67.9°C | 46.2% | 0hPa | 2.7V | 08:30:00 | 01:09:21 | 00:00:00 | |
| IW2NTF | 2026-09-05 23:42:48 | 44.47042 | 11.89281 | 127° | 69km/h | 14621m | 3.9m/s | -68°C | 46.8% | 0hPa | 2.8V | 08:30:00 | 01:09:11 | 00:00:00 | |
| IW2NTF | 2026-09-05 23:42:42 | 44.47158 | 11.89095 | 131° | 69km/h | 14563m | 10.2m/s | -68.5°C | 49.9% | 0hPa | 2.7V | 08:30:00 | 01:09:01 | 00:00:00 | |
| IW2NTF | 2026-09-05 23:42:29 | 44.47282 | 11.88887 | 130° | 73km/h | 14507m | 4m/s | -69°C | 52.5% | 0hPa | 2.8V | 08:30:00 | 01:08:51 | 00:00:00 | |
| IW2NTF | 2026-09-05 23:42:22 | 44.47400 | 11.88679 | 121° | 78km/h | 14450m | 2.3m/s | -69.1°C | 54.9% | 0hPa | 2.8V | 08:30:00 | 01:08:41 | 00:00:00 | |
| IW2NTF | 2026-09-05 23:42:08 | 44.47486 | 11.88457 | 120° | 77km/h | 14381m | 2.5m/s | -69.1°C | 52.9% | 0hPa | 2.8V | 08:30:00 | 01:08:31 | 00:00:00 | |
| IW2NTF | 2026-09-05 23:42:02 | 44.47551 | 11.88207 | 110° | 75km/h | 14319m | 1.7m/s | -68.7°C | 53.4% | 0hPa | 2.7V | 08:30:00 | 01:08:21 | 00:00:00 | |
| IW2NTF | 2026-09-05 23:41:46 | 44.47617 | 11.87892 | 111° | 78km/h | 14245m | 7.9m/s | -68.8°C | 52.3% | 0hPa | 2.7V | 08:30:00 | 01:08:09 | 00:00:00 | |
| IW2NTF | 2026-09-05 23:41:41 | 44.47646 | 11.87630 | 95° | 68km/h | 14176m | 5.7m/s | -68.5°C | 53.9% | 0hPa | 2.8V | 08:30:00 | 01:07:58 | 00:00:00 | |
| IW2NTF | 2026-09-05 23:41:26 | 44.47663 | 11.87388 | 89° | 68km/h | 14121m | 2.1m/s | -68.2°C | 51.4% | 0hPa | 2.8V | 08:30:00 | 01:07:48 | 00:00:00 | |
| IW2NTF | 2026-09-05 23:41:19 | 44.47692 | 11.87163 | 104° | 58km/h | 14063m | 7.4m/s | -68.3°C | 54.6% | 0hPa | 2.8V | 08:30:00 | 01:07:38 | 00:00:00 | |
| IW2NTF | 2026-09-05 23:41:07 | 44.47727 | 11.86951 | 104° | 62km/h | 14002m | 5.4m/s | -68.5°C | 54.7% | 0hPa | 2.7V | 08:30:00 | 01:07:28 | 00:00:00 | |
| IW2NTF | 2026-09-05 23:40:59 | 44.47770 | 11.86766 | 111° | 55km/h | 13948m | 2.8m/s | -68.2°C | 57.2% | 0hPa | 2.7V | 08:30:00 | 01:07:18 | 00:00:00 | |
| IW2NTF | 2026-09-05 23:40:46 | 44.47808 | 11.86577 | 105° | 55km/h | 13891m | 10.2m/s | -67.9°C | 56.3% | 0hPa | 2.8V | 08:30:00 | 01:07:08 | 00:00:00 | |
| IW2NTF | 2026-09-05 23:40:36 | 44.47857 | 11.86376 | 114° | 57km/h | 13825m | 4.1m/s | -68°C | 58.4% | 0hPa | 2.7V | 08:30:00 | 01:06:58 | 00:00:00 | |
| IW2NTF | 2026-09-05 23:40:27 | 44.47935 | 11.86198 | 127° | 57km/h | 13761m | 7.5m/s | -67.9°C | 63.2% | 0hPa | 2.7V | 08:30:00 | 01:06:47 | 00:00:00 | |
| IW2NTF | 2026-09-05 23:40:16 | 44.48006 | 11.86036 | 127° | 55km/h | 13703m | 7.7m/s | -67.5°C | 63.7% | 0hPa | 2.8V | 08:30:00 | 01:06:37 | 00:00:00 | |
| IW2NTF | 2026-09-05 23:40:06 | 44.48075 | 11.85859 | 121° | 58km/h | 13638m | 7.7m/s | -67°C | 63.7% | 0hPa | 2.8V | 08:30:00 | 01:06:27 | 00:00:00 | |
| IW2NTF | 2026-09-05 23:39:57 | 44.48157 | 11.85671 | 122° | 60km/h | 13573m | 7.5m/s | -66.7°C | 63.7% | 0hPa | 2.7V | 08:30:00 | 01:06:16 | 00:00:00 | |
| IW2NTF | 2026-09-05 23:39:47 | 44.48248 | 11.85506 | 125° | 58km/h | 13514m | 11m/s | -66.2°C | 61.5% | 0hPa | 2.7V | 08:30:00 | 01:06:06 | 00:00:00 | |
| IW2NTF | 2026-09-05 23:39:36 | 44.48340 | 11.85348 | 131° | 58km/h | 13452m | 4.4m/s | -65.7°C | 62.1% | 0hPa | 2.7V | 08:30:00 | 01:05:56 | 00:00:00 | |
| IW2NTF | 2026-09-05 23:39:26 | 44.48505 | 11.85068 | 129° | 53km/h | 13346m | 8m/s | -64.8°C | 60.7% | 0hPa | 2.8V | 08:30:00 | 01:05:38 | 00:00:00 | |
| IW2NTF | 2026-09-05 23:39:20 | 44.48581 | 11.84945 | 131° | 57km/h | 13295m | 4.2m/s | -64.4°C | 59.7% | 0hPa | 2.7V | 08:30:00 | 01:05:30 | 00:00:00 | |
| IW2NTF | 2026-09-05 23:39:01 | 44.48678 | 11.84791 | 133° | 58km/h | 13237m | 4.4m/s | -63.8°C | 58.3% | 0hPa | 2.8V | 08:30:00 | 01:05:20 | 00:00:00 | |
| IW2NTF | 2026-09-05 23:38:51 | 44.48777 | 11.84636 | 133° | 55km/h | 13180m | 3.8m/s | -63.3°C | 57.6% | 0hPa | 2.7V | 08:30:00 | 01:05:10 | 00:00:00 | |
| IW2NTF | 2026-09-05 23:38:41 | 44.48876 | 11.84487 | 130° | 58km/h | 13117m | 6.5m/s | -62.8°C | 57.7% | 0hPa | 2.7V | 08:30:00 | 01:05:00 | 00:00:00 | |
| IW2NTF | 2026-09-05 23:38:33 | 44.48979 | 11.84335 | 132° | 60km/h | 13058m | 9.2m/s | -62.3°C | 57.9% | 0hPa | 2.8V | 08:30:00 | 01:04:50 | 00:00:00 | |
| IW2NTF | 2026-09-05 23:38:21 | 44.49081 | 11.84185 | 129° | 57km/h | 12995m | 6.2m/s | -61.8°C | 56% | 0hPa | 2.8V | 08:30:00 | 01:04:40 | 00:00:00 | |
| IW2NTF | 2026-09-05 23:38:11 | 44.49177 | 11.84028 | 132° | 57km/h | 12942m | 6.8m/s | -61.3°C | 55.8% | 0hPa | 2.7V | 08:30:00 | 01:04:30 | 00:00:00 | |
| IW2NTF | 2026-09-05 23:38:01 | 44.49275 | 11.83868 | 128° | 58km/h | 12884m | 6.6m/s | -60.8°C | 55.6% | 0hPa | 2.8V | 08:30:00 | 01:04:20 | 00:00:00 | |
| IW2NTF | 2026-09-05 23:37:52 | 44.49377 | 11.83716 | 136° | 60km/h | 12826m | 10.3m/s | -60.3°C | 54.7% | 0hPa | 2.8V | 08:30:00 | 01:04:10 | 00:00:00 | |
| IW2NTF | 2026-09-05 23:37:41 | 44.49480 | 11.83566 | 132° | 60km/h | 12766m | 1.7m/s | -59.8°C | 53.2% | 0hPa | 2.7V | 08:30:00 | 01:04:00 | 00:00:00 | |
| IW2NTF | 2026-09-05 23:37:31 | 44.49583 | 11.83420 | 135° | 55km/h | 12710m | 2.3m/s | -59.3°C | 50.8% | 0hPa | 2.8V | 08:30:00 | 01:03:50 | 00:00:00 | |
| IW2NTF | 2026-09-05 23:37:16 | 44.49686 | 11.83281 | 135° | 55km/h | 12647m | 5.1m/s | -58.8°C | 46.1% | 0hPa | 2.7V | 08:30:00 | 01:03:40 | 00:00:00 | |
| IW2NTF | 2026-09-05 23:37:06 | 44.49808 | 11.83111 | 133° | 57km/h | 12576m | 3.2m/s | -58.3°C | 46.7% | 0hPa | 2.8V | 08:30:00 | 01:03:28 | 00:00:00 | |
| IW2NTF | 2026-09-05 23:36:59 | 44.49898 | 11.82966 | 135° | 58km/h | 12516m | 7.7m/s | -57.8°C | 44.5% | 0hPa | 2.8V | 08:30:00 | 01:03:18 | 00:00:00 | |
| IW2NTF | 2026-09-05 23:36:49 | 44.49987 | 11.82824 | 128° | 51km/h | 12456m | 7.5m/s | -57.3°C | 41.7% | 0hPa | 2.7V | 08:30:00 | 01:03:08 | 00:00:00 | |
| IW2NTF | 2026-09-05 23:36:39 | 44.50076 | 11.82681 | 130° | 55km/h | 12397m | 4.7m/s | -56.8°C | 39.4% | 0hPa | 2.8V | 08:30:00 | 01:02:58 | 00:00:00 | |
| IW2NTF | 2026-09-05 23:36:25 | 44.50163 | 11.82531 | 134° | 51km/h | 12334m | 3.7m/s | -56.3°C | 39.3% | 0hPa | 2.8V | 08:30:00 | 01:02:48 | 00:00:00 | |
| IW2NTF | 2026-09-05 23:36:19 | 44.50256 | 11.82394 | 133° | 55km/h | 12281m | 4.7m/s | -55.8°C | 39.5% | 0hPa | 2.8V | 08:30:00 | 01:02:38 | 00:00:00 | |
| IW2NTF | 2026-09-05 23:36:05 | 44.50344 | 11.82250 | 128° | 55km/h | 12225m | 4.6m/s | -55.4°C | 39% | 0hPa | 2.8V | 08:30:00 | 01:02:28 | 00:00:00 | |
| IW2NTF | 2026-09-05 23:35:59 | 44.50434 | 11.82098 | 132° | 55km/h | 12168m | 9.6m/s | -55°C | 38.5% | 0hPa | 2.9V | 08:30:00 | 01:02:18 | 00:00:00 | |
| IW2NTF | 2026-09-05 23:35:45 | 44.50527 | 11.81949 | 131° | 57km/h | 12105m | 6.7m/s | -54.5°C | 38.1% | 0hPa | 2.8V | 08:30:00 | 01:02:08 | 00:00:00 | |
| IW2NTF | 2026-09-05 23:35:39 | 44.50616 | 11.81797 | 129° | 57km/h | 12043m | 3.5m/s | -54.1°C | 38.8% | 0hPa | 2.8V | 08:30:00 | 01:01:58 | 00:00:00 | |
| IW2NTF | 2026-09-05 23:35:25 | 44.50711 | 11.81638 | 132° | 58km/h | 11984m | 2.9m/s | -53.6°C | 36.8% | 0hPa | 2.8V | 08:30:00 | 01:01:48 | 00:00:00 | |
| IW2NTF | 2026-09-05 23:35:15 | 44.50806 | 11.81478 | 126° | 60km/h | 11921m | 8.9m/s | -53°C | 32.9% | 0hPa | 2.9V | 08:30:00 | 01:01:38 | 00:00:00 | |
| IW2NTF | 2026-09-05 23:35:05 | 44.50905 | 11.81314 | 131° | 57km/h | 11860m | 8.7m/s | -52.5°C | 26.8% | 0hPa | 2.8V | 08:30:00 | 01:01:28 | 00:00:00 | |
| IW2NTF | 2026-09-05 23:30:58 | 44.53895 | 11.77691 | 134° | 66km/h | 10336m | 7.5m/s | -40.2°C | 30.2% | 0hPa | 2.8V | 08:30:00 | 00:57:17 | 00:00:00 | |
| IW2NTF | 2026-09-05 23:30:44 | 44.54015 | 11.77536 | 138° | 60km/h | 10262m | 7m/s | -39.6°C | 30.3% | 0hPa | 2.9V | 08:30:00 | 00:57:06 | 00:00:00 | |
| IW2NTF | 2026-09-05 23:30:34 | 44.54134 | 11.77396 | 145° | 58km/h | 10202m | 7.7m/s | -39.1°C | 30.9% | 0hPa | 2.8V | 08:30:00 | 00:56:56 | 00:00:00 | |
| IW2NTF | 2026-09-05 23:30:23 | 44.54248 | 11.77263 | 140° | 57km/h | 10142m | 6m/s | -38.6°C | 32.2% | 0hPa | 2.9V | 08:30:00 | 00:56:46 | 00:00:00 | |
| IW2NTF | 2026-09-05 23:30:13 | 44.54357 | 11.77123 | 136° | 62km/h | 10085m | 4.7m/s | -38°C | 32.1% | 0hPa | 2.9V | 08:30:00 | 00:56:36 | 00:00:00 | |
| IW2NTF | 2026-09-05 23:30:03 | 44.54463 | 11.76969 | 133° | 66km/h | 10025m | 4.6m/s | -37.5°C | 31.7% | 0hPa | 2.8V | 08:30:00 | 00:56:26 | 00:00:00 | |
| IW2NTF | 2026-09-05 23:29:57 | 44.54568 | 11.76827 | 135° | 60km/h | 9966m | 8.8m/s | -36.9°C | 31.5% | 0hPa | 2.9V | 08:30:00 | 00:56:16 | 00:00:00 | |
| IW2NTF | 2026-09-05 23:29:47 | 44.54676 | 11.76685 | 133° | 58km/h | 9904m | 7.1m/s | -36.5°C | 34% | 0hPa | 2.9V | 08:30:00 | 00:56:06 | 00:00:00 | |
| IW2NTF | 2026-09-05 23:29:28 | 44.54893 | 11.76382 | 135° | 62km/h | 9788m | 8.3m/s | -35.5°C | 31.5% | 0hPa | 2.9V | 08:30:00 | 00:55:46 | 00:00:00 | |
| IW2NTF | 2026-09-05 23:29:15 | 44.55021 | 11.76192 | 131° | 57km/h | 9714m | 7m/s | -34.8°C | 29.6% | 0hPa | 2.9V | 08:30:00 | 00:55:34 | 00:00:00 | |
| IW2NTF | 2026-09-05 23:29:06 | 44.55113 | 11.76029 | 131° | 58km/h | 9654m | 5.6m/s | -34.3°C | 28.3% | 0hPa | 2.8V | 08:30:00 | 00:55:24 | 00:00:00 | |
| IW2NTF | 2026-09-05 23:28:55 | 44.55210 | 11.75868 | 123° | 62km/h | 9592m | 7.8m/s | -33.7°C | 27.4% | 0hPa | 2.9V | 08:30:00 | 00:55:14 | 00:00:00 | |
| IW2NTF | 2026-09-05 23:28:43 | 44.55327 | 11.75681 | 133° | 62km/h | 9529m | 8.2m/s | -33.2°C | 27.8% | 0hPa | 2.9V | 08:30:00 | 00:55:02 | 00:00:00 | |
| IW2NTF | 2026-09-05 23:28:29 | 44.55421 | 11.75540 | 126° | 57km/h | 9467m | 3.4m/s | -32.9°C | 29.6% | 0hPa | 2.8V | 08:30:00 | 00:54:52 | 00:00:00 | |
| IW2NTF | 2026-09-05 23:28:23 | 44.55523 | 11.75379 | 127° | 57km/h | 9412m | 6m/s | -32.6°C | 32.2% | 0hPa | 2.8V | 08:30:00 | 00:54:42 | 00:00:00 | |
| IW2NTF | 2026-09-05 23:28:13 | 44.55617 | 11.75216 | 130° | 60km/h | 9360m | 4.6m/s | -32.2°C | 32.6% | 0hPa | 2.9V | 08:30:00 | 00:54:32 | 00:00:00 | |
| IW2NTF | 2026-09-05 23:28:02 | 44.55726 | 11.75043 | 124° | 55km/h | 9297m | 6.7m/s | -31.6°C | 31% | 0hPa | 2.9V | 08:30:00 | 00:54:21 | 00:00:00 | |
| IW2NTF | 2026-09-05 23:27:15 | 44.56157 | 11.74301 | 130° | 69km/h | 9057m | 6.3m/s | -29.4°C | 28.6% | 0hPa | 2.9V | 08:30:00 | 00:53:38 | 00:00:00 | |
| IW2NTF | 2026-09-05 23:27:05 | 44.56282 | 11.74104 | 133° | 60km/h | 8989m | 2.7m/s | -28.9°C | 29.6% | 0hPa | 2.9V | 08:30:00 | 00:53:26 | 00:00:00 | |
| IW2NTF | 2026-09-05 23:26:44 | 44.56520 | 11.73722 | 132° | 68km/h | 8850m | 5m/s | -27.9°C | 34.5% | 0hPa | 2.9V | 08:30:00 | 00:53:03 | 00:00:00 | |
| IW2NTF | 2026-09-05 23:26:34 | 44.56616 | 11.73564 | 135° | 58km/h | 8792m | 3m/s | -27.5°C | 36.2% | 0hPa | 2.9V | 08:30:00 | 00:52:53 | 00:00:00 | |
| IW2NTF | 2026-09-05 23:26:24 | 44.56721 | 11.73410 | 134° | 53km/h | 8733m | 4.4m/s | -27.4°C | 43.7% | 0hPa | 2.9V | 08:30:00 | 00:52:43 | 00:00:00 | |
| IW2NTF | 2026-09-05 23:26:13 | 44.56828 | 11.73252 | 132° | 57km/h | 8666m | 6.5m/s | -26.8°C | 44.6% | 0hPa | 2.9V | 08:30:00 | 00:52:32 | 00:00:00 | |
| IW2NTF | 2026-09-05 23:26:03 | 44.56928 | 11.73106 | 134° | 62km/h | 8613m | 8.9m/s | -26.3°C | 44% | 0hPa | 2.9V | 08:30:00 | 00:52:22 | 00:00:00 | |
| IW2NTF | 2026-09-05 23:25:51 | 44.57051 | 11.72928 | 130° | 60km/h | 8539m | 7.9m/s | -25.6°C | 43.3% | 0hPa | 2.9V | 08:30:00 | 00:52:10 | 00:00:00 | |
| IW2NTF | 2026-09-05 23:25:41 | 44.57150 | 11.72775 | 135° | 57km/h | 8493m | 6.1m/s | -25.2°C | 43.4% | 0hPa | 2.9V | 08:30:00 | 00:52:00 | 00:00:00 | |
| IW2NTF | 2026-09-05 23:25:31 | 44.57251 | 11.72630 | 136° | 53km/h | 8439m | 5.9m/s | -24.8°C | 44.2% | 0hPa | 2.8V | 08:30:00 | 00:51:50 | 00:00:00 | |
| IW2NTF | 2026-09-05 23:25:21 | 44.57341 | 11.72491 | 131° | 55km/h | 8377m | 2.6m/s | -24.3°C | 44.9% | 0hPa | 2.9V | 08:30:00 | 00:51:40 | 00:00:00 | |
| IW2NTF | 2026-09-05 23:25:11 | 44.57432 | 11.72345 | 127° | 58km/h | 8316m | 4.9m/s | -23.9°C | 43.5% | 0hPa | 2.9V | 08:30:00 | 00:51:30 | 00:00:00 | |
| IW2NTF | 2026-09-05 23:25:01 | 44.57525 | 11.72176 | 127° | 55km/h | 8270m | 3.2m/s | -23.4°C | 42.4% | 0hPa | 2.9V | 08:30:00 | 00:51:20 | 00:00:00 | |
| IW2NTF | 2026-09-05 23:24:51 | 44.57616 | 11.72026 | 130° | 64km/h | 8215m | 8.3m/s | -22.9°C | 0% | 0hPa | 2.9V | 08:30:00 | 00:51:10 | 00:00:00 | |
| IW2NTF | 2026-09-05 23:24:41 | 44.57710 | 11.71874 | 132° | 57km/h | 8160m | 6.5m/s | 0°C | 0% | 0hPa | 2.9V | 08:30:00 | 00:51:00 | 00:00:00 | |
| IW2NTF | 2026-09-05 23:24:31 | 44.57797 | 11.71728 | 124° | 51km/h | 8106m | 7.1m/s | 0°C | 0% | 0hPa | 2.9V | 00:00:00 | 00:50:50 | 00:00:00 | |
| IW2NTF | 2026-09-05 23:24:15 | 44.57904 | 11.71543 | 123° | 51km/h | 8049m | 7m/s | 0°C | 0% | 0hPa | 2.9V | 00:00:00 | 00:50:38 | 00:00:00 | |
| IW2NTF | 2026-09-05 23:24:05 | 44.57979 | 11.71409 | 125° | 47km/h | 7983m | 7.8m/s | 0°C | 0% | 0hPa | 2.9V | 00:00:00 | 00:50:28 | 00:00:00 | |
| IW2NTF | 2026-09-05 23:23:55 | 44.58066 | 11.71253 | 132° | 57km/h | 7918m | 5.1m/s | 0°C | 0% | 0hPa | 2.9V | 00:00:00 | 00:50:18 | 00:00:00 | |
| IW2NTF | 2026-09-05 23:23:45 | 44.58150 | 11.71116 | 138° | 49km/h | 7873m | 5.6m/s | 0°C | 0% | 0hPa | 2.9V | 00:00:00 | 00:50:08 | 00:00:00 | |
| IW2NTF | 2026-09-05 23:23:35 | 44.58246 | 11.70981 | 129° | 49km/h | 7817m | 3.9m/s | 0°C | 0% | 0hPa | 2.9V | 00:00:00 | 00:49:58 | 00:00:00 | |
| IW2NTF | 2026-09-05 23:13:58 | 44.63770 | 11.63809 | 145° | 29km/h | 4550m | 4.5m/s | 0°C | 0% | 0hPa | 3V | 00:00:00 | 00:40:16 | 00:00:00 | |
| IW2NTF | 2026-09-05 23:13:52 | 44.63801 | 11.63772 | 136° | 27km/h | 4513m | 5.1m/s | 0°C | 0% | 0hPa | 3V | 00:00:00 | 00:40:10 | 00:00:00 | |
| IW2NTF | 2026-09-05 23:13:47 | 44.63834 | 11.63734 | 139° | 29km/h | 4484m | 8.8m/s | 0°C | 0% | 0hPa | 3V | 00:00:00 | 00:40:04 | 00:00:00 | |
| IW2NTF | 2026-09-05 23:13:40 | 44.63858 | 11.63705 | 130° | 31km/h | 4456m | 6m/s | 0°C | 0% | 0hPa | 3V | 00:00:00 | 00:40:00 | 00:00:00 | |
| IW2NTF | 2026-09-05 23:13:34 | 44.63888 | 11.63647 | 132° | 24km/h | 4402m | 4.9m/s | 0°C | 0% | 0hPa | 3V | 00:00:00 | 00:39:52 | 00:00:00 | |
| IW2NTF | 2026-09-05 23:12:38 | 44.64013 | 11.63222 | 86° | 27km/h | 4093m | 3m/s | 0°C | 0% | 0hPa | 3V | 00:00:00 | 00:38:57 | 00:00:00 | |
| IW2NTF | 2026-09-05 23:12:14 | 44.64018 | 11.63033 | 88° | 26km/h | 3973m | 2.9m/s | 0°C | 0% | 0hPa | 3V | 00:00:00 | 00:38:36 | 00:00:00 | |
| IW2NTF | 2026-09-05 23:12:08 | 44.64022 | 11.62980 | 104° | 27km/h | 3933m | 7.5m/s | 0°C | 0% | 0hPa | 3V | 00:00:00 | 00:38:30 | 00:00:00 | |
| IW2NTF | 2026-09-05 23:12:02 | 44.64034 | 11.62923 | 110° | 27km/h | 3906m | 3.8m/s | 0°C | 0% | 0hPa | 3V | 00:00:00 | 00:38:24 | 00:00:00 | |
| IW2NTF | 2026-09-05 23:11:56 | 44.64054 | 11.62873 | 115° | 29km/h | 3874m | 4.3m/s | 0°C | 0% | 0hPa | 3V | 00:00:00 | 00:38:18 | 00:00:00 | |
| IW2NTF | 2026-09-05 23:11:50 | 44.64079 | 11.62808 | 126° | 31km/h | 3843m | 5m/s | 0°C | 0% | 0hPa | 3V | 00:00:00 | 00:38:12 | 00:00:00 | |
| IW2NTF | 2026-09-05 23:11:45 | 44.64102 | 11.62753 | 114° | 24km/h | 3807m | 5.2m/s | 0°C | 0% | 0hPa | 3V | 00:00:00 | 00:38:06 | 00:00:00 | |
| IW2NTF | 2026-09-05 23:11:38 | 44.64114 | 11.62708 | 106° | 27km/h | 3771m | 6.1m/s | 0°C | 0% | 0hPa | 3V | 00:00:00 | 00:38:00 | 00:00:00 | |
| IW2NTF | 2026-09-05 23:11:32 | 44.64134 | 11.62646 | 116° | 33km/h | 3734m | 6.7m/s | 0°C | 0% | 0hPa | 3V | 00:00:00 | 00:37:54 | 00:00:00 | |
| IW2NTF | 2026-09-05 23:11:26 | 44.64150 | 11.62595 | 122° | 26km/h | 3704m | 2.6m/s | 0°C | 0% | 0hPa | 3V | 00:00:00 | 00:37:48 | 00:00:00 | |
| IW2NTF | 2026-09-05 23:11:20 | 44.64172 | 11.62536 | 118° | 29km/h | 3657m | 6.7m/s | 0°C | 0% | 0hPa | 3V | 00:00:00 | 00:37:41 | 00:00:00 | |
| IW2NTF | 2026-09-05 23:11:14 | 44.64201 | 11.62462 | 116° | 33km/h | 3610m | 6.6m/s | 0°C | 0% | 0hPa | 3V | 00:00:00 | 00:37:33 | 00:00:00 | |
| IW2NTF | 2026-09-05 23:10:50 | 44.64290 | 11.62291 | 124° | 31km/h | 3498m | 4.6m/s | 0°C | 0% | 0hPa | 3V | 00:00:00 | 00:37:13 | 00:00:00 | |
| IW2NTF | 2026-09-05 23:10:44 | 44.64335 | 11.62205 | 124° | 29km/h | 3441m | 6m/s | 0°C | 0% | 0hPa | 3V | 00:00:00 | 00:37:03 | 00:00:00 | |
| IW2NTF | 2026-09-05 23:09:38 | 44.64581 | 11.61956 | 126° | 11km/h | 3072m | 5.2m/s | 0°C | 0% | 0hPa | 3V | 00:00:00 | 00:35:59 | 00:00:00 | |
| IW2NTF | 2026-09-05 23:09:32 | 44.64597 | 11.61932 | 144° | 15km/h | 3038m | 3.7m/s | 0°C | 0% | 0hPa | 3V | 00:00:00 | 00:35:53 | 00:00:00 |